sensor_id;sensor_type;location;lat;lon;timestamp;P1;durP1;ratioP1;P2;durP2;ratioP2
45136;SDS011;30894;51.740;19.498;2024-02-26T00:00:19;26.55;;;9.80;;
45136;SDS011;30894;51.740;19.498;2024-02-26T00:03:08;26.23;;;9.43;;
45136;SDS011;30894;51.740;19.498;2024-02-26T00:05:35;23.45;;;8.95;;
45136;SDS011;30894;51.740;19.498;2024-02-26T00:08:04;27.38;;;9.25;;
45136;SDS011;30894;51.740;19.498;2024-02-26T00:10:31;36.35;;;10.15;;
45136;SDS011;30894;51.740;19.498;2024-02-26T00:13:03;26.58;;;9.60;;
45136;SDS011;30894;51.740;19.498;2024-02-26T00:15:31;37.88;;;12.10;;
45136;SDS011;30894;51.740;19.498;2024-02-26T00:18:01;26.02;;;10.32;;
45136;SDS011;30894;51.740;19.498;2024-02-26T00:20:32;27.60;;;10.52;;
45136;SDS011;30894;51.740;19.498;2024-02-26T00:22:59;34.08;;;12.50;;
45136;SDS011;30894;51.740;19.498;2024-02-26T00:25:25;26.92;;;10.13;;
45136;SDS011;30894;51.740;19.498;2024-02-26T00:27:57;33.42;;;11.43;;
45136;SDS011;30894;51.740;19.498;2024-02-26T00:30:23;35.80;;;11.65;;
45136;SDS011;30894;51.740;19.498;2024-02-26T00:32:50;42.20;;;11.82;;
45136;SDS011;30894;51.740;19.498;2024-02-26T00:35:18;31.70;;;10.02;;
45136;SDS011;30894;51.740;19.498;2024-02-26T00:37:46;38.13;;;10.90;;
45136;SDS011;30894;51.740;19.498;2024-02-26T00:40:13;68.40;;;16.80;;
45136;SDS011;30894;51.740;19.498;2024-02-26T00:42:42;53.80;;;14.05;;
45136;SDS011;30894;51.740;19.498;2024-02-26T00:45:11;27.52;;;9.20;;
45136;SDS011;30894;51.740;19.498;2024-02-26T00:47:38;24.00;;;9.32;;
45136;SDS011;30894;51.740;19.498;2024-02-26T00:50:10;25.38;;;9.15;;
45136;SDS011;30894;51.740;19.498;2024-02-26T00:52:36;37.55;;;11.45;;
45136;SDS011;30894;51.740;19.498;2024-02-26T00:55:03;26.60;;;9.73;;
45136;SDS011;30894;51.740;19.498;2024-02-26T00:57:33;36.40;;;11.88;;
45136;SDS011;30894;51.740;19.498;2024-02-26T01:00:00;23.77;;;9.15;;
45136;SDS011;30894;51.740;19.498;2024-02-26T01:02:29;24.70;;;9.82;;
45136;SDS011;30894;51.740;19.498;2024-02-26T01:04:57;42.10;;;14.05;;
45136;SDS011;30894;51.740;19.498;2024-02-26T01:07:25;41.05;;;13.10;;
45136;SDS011;30894;51.740;19.498;2024-02-26T01:09:51;29.02;;;10.88;;
45136;SDS011;30894;51.740;19.498;2024-02-26T01:12:19;32.03;;;10.70;;
45136;SDS011;30894;51.740;19.498;2024-02-26T01:14:46;29.63;;;10.32;;
45136;SDS011;30894;51.740;19.498;2024-02-26T01:17:15;23.95;;;10.52;;
45136;SDS011;30894;51.740;19.498;2024-02-26T01:19:44;19.65;;;8.75;;
45136;SDS011;30894;51.740;19.498;2024-02-26T01:22:12;23.90;;;8.35;;
45136;SDS011;30894;51.740;19.498;2024-02-26T01:24:38;20.77;;;7.50;;
45136;SDS011;30894;51.740;19.498;2024-02-26T01:27:05;20.58;;;7.95;;
45136;SDS011;30894;51.740;19.498;2024-02-26T01:29:33;28.35;;;8.35;;
45136;SDS011;30894;51.740;19.498;2024-02-26T01:31:59;29.10;;;10.73;;
45136;SDS011;30894;51.740;19.498;2024-02-26T01:34:28;35.70;;;12.63;;
45136;SDS011;30894;51.740;19.498;2024-02-26T01:36:58;19.55;;;9.00;;
45136;SDS011;30894;51.740;19.498;2024-02-26T01:39:28;27.63;;;8.82;;
45136;SDS011;30894;51.740;19.498;2024-02-26T01:41:58;25.52;;;9.15;;
45136;SDS011;30894;51.740;19.498;2024-02-26T01:44:26;26.48;;;9.77;;
45136;SDS011;30894;51.740;19.498;2024-02-26T01:49:26;26.70;;;9.68;;
45136;SDS011;30894;51.740;19.498;2024-02-26T01:51:58;23.63;;;9.48;;
45136;SDS011;30894;51.740;19.498;2024-02-26T01:54:26;25.55;;;9.55;;
45136;SDS011;30894;51.740;19.498;2024-02-26T01:56:53;25.95;;;9.98;;
45136;SDS011;30894;51.740;19.498;2024-02-26T01:59:20;23.08;;;8.70;;
45136;SDS011;30894;51.740;19.498;2024-02-26T02:01:47;20.98;;;9.45;;
45136;SDS011;30894;51.740;19.498;2024-02-26T02:04:19;18.88;;;8.30;;
45136;SDS011;30894;51.740;19.498;2024-02-26T02:06:48;22.48;;;9.40;;
45136;SDS011;30894;51.740;19.498;2024-02-26T02:09:14;23.92;;;9.60;;
45136;SDS011;30894;51.740;19.498;2024-02-26T02:11:44;27.90;;;11.23;;
45136;SDS011;30894;51.740;19.498;2024-02-26T02:14:14;15.50;;;6.43;;
45136;SDS011;30894;51.740;19.498;2024-02-26T02:16:41;28.90;;;8.80;;
45136;SDS011;30894;51.740;19.498;2024-02-26T02:19:10;18.88;;;7.15;;
45136;SDS011;30894;51.740;19.498;2024-02-26T02:21:36;24.63;;;8.60;;
45136;SDS011;30894;51.740;19.498;2024-02-26T02:24:02;18.58;;;7.72;;
45136;SDS011;30894;51.740;19.498;2024-02-26T02:26:30;24.45;;;8.25;;
45136;SDS011;30894;51.740;19.498;2024-02-26T02:28:56;25.17;;;9.15;;
45136;SDS011;30894;51.740;19.498;2024-02-26T02:31:23;11.57;;;6.15;;
45136;SDS011;30894;51.740;19.498;2024-02-26T02:33:49;25.35;;;9.77;;
45136;SDS011;30894;51.740;19.498;2024-02-26T02:36:17;23.33;;;9.85;;
45136;SDS011;30894;51.740;19.498;2024-02-26T02:38:49;15.57;;;8.05;;
45136;SDS011;30894;51.740;19.498;2024-02-26T02:41:17;15.55;;;8.27;;
45136;SDS011;30894;51.740;19.498;2024-02-26T02:43:44;28.23;;;9.90;;
45136;SDS011;30894;51.740;19.498;2024-02-26T02:46:13;21.20;;;8.57;;
45136;SDS011;30894;51.740;19.498;2024-02-26T02:48:41;24.42;;;9.00;;
45136;SDS011;30894;51.740;19.498;2024-02-26T02:51:08;20.38;;;8.05;;
45136;SDS011;30894;51.740;19.498;2024-02-26T02:53:35;19.52;;;9.60;;
45136;SDS011;30894;51.740;19.498;2024-02-26T02:56:07;21.17;;;9.82;;
45136;SDS011;30894;51.740;19.498;2024-02-26T02:58:38;22.92;;;9.40;;
45136;SDS011;30894;51.740;19.498;2024-02-26T03:01:05;24.48;;;9.10;;
45136;SDS011;30894;51.740;19.498;2024-02-26T03:03:31;22.83;;;8.63;;
45136;SDS011;30894;51.740;19.498;2024-02-26T03:05:57;25.58;;;9.07;;
45136;SDS011;30894;51.740;19.498;2024-02-26T03:08:23;21.38;;;8.98;;
45136;SDS011;30894;51.740;19.498;2024-02-26T03:10:52;24.80;;;9.07;;
45136;SDS011;30894;51.740;19.498;2024-02-26T03:13:18;22.52;;;8.90;;
45136;SDS011;30894;51.740;19.498;2024-02-26T03:15:47;19.80;;;8.65;;
45136;SDS011;30894;51.740;19.498;2024-02-26T03:18:13;26.15;;;8.52;;
45136;SDS011;30894;51.740;19.498;2024-02-26T03:20:42;24.25;;;9.05;;
45136;SDS011;30894;51.740;19.498;2024-02-26T03:23:08;24.90;;;9.02;;
45136;SDS011;30894;51.740;19.498;2024-02-26T03:25:39;21.60;;;9.55;;
45136;SDS011;30894;51.740;19.498;2024-02-26T03:28:05;23.40;;;8.02;;
45136;SDS011;30894;51.740;19.498;2024-02-26T03:30:32;17.95;;;7.47;;
45136;SDS011;30894;51.740;19.498;2024-02-26T03:32:58;21.75;;;8.85;;
45136;SDS011;30894;51.740;19.498;2024-02-26T03:35:27;18.60;;;7.15;;
45136;SDS011;30894;51.740;19.498;2024-02-26T03:37:54;20.20;;;7.25;;
45136;SDS011;30894;51.740;19.498;2024-02-26T03:40:23;19.30;;;8.55;;
45136;SDS011;30894;51.740;19.498;2024-02-26T03:42:50;19.33;;;7.43;;
45136;SDS011;30894;51.740;19.498;2024-02-26T03:45:18;21.23;;;7.60;;
45136;SDS011;30894;51.740;19.498;2024-02-26T03:47:44;19.23;;;7.57;;
45136;SDS011;30894;51.740;19.498;2024-02-26T03:50:11;17.05;;;6.57;;
45136;SDS011;30894;51.740;19.498;2024-02-26T03:52:39;17.08;;;6.80;;
45136;SDS011;30894;51.740;19.498;2024-02-26T03:55:06;24.45;;;7.22;;
45136;SDS011;30894;51.740;19.498;2024-02-26T03:57:32;14.48;;;7.72;;
45136;SDS011;30894;51.740;19.498;2024-02-26T03:59:59;24.48;;;8.32;;
45136;SDS011;30894;51.740;19.498;2024-02-26T04:02:25;21.60;;;7.80;;
45136;SDS011;30894;51.740;19.498;2024-02-26T04:04:53;17.13;;;5.63;;
45136;SDS011;30894;51.740;19.498;2024-02-26T04:07:22;16.13;;;7.47;;
45136;SDS011;30894;51.740;19.498;2024-02-26T04:09:48;21.80;;;7.30;;
45136;SDS011;30894;51.740;19.498;2024-02-26T04:12:17;19.55;;;7.28;;
45136;SDS011;30894;51.740;19.498;2024-02-26T04:14:45;15.90;;;7.10;;
45136;SDS011;30894;51.740;19.498;2024-02-26T04:17:12;21.13;;;8.70;;
45136;SDS011;30894;51.740;19.498;2024-02-26T04:19:39;20.25;;;8.07;;
45136;SDS011;30894;51.740;19.498;2024-02-26T04:22:05;24.13;;;8.27;;
45136;SDS011;30894;51.740;19.498;2024-02-26T04:24:35;22.33;;;9.10;;
45136;SDS011;30894;51.740;19.498;2024-02-26T04:27:03;26.92;;;8.75;;
45136;SDS011;30894;51.740;19.498;2024-02-26T04:29:30;24.85;;;10.02;;
45136;SDS011;30894;51.740;19.498;2024-02-26T04:31:57;26.60;;;9.05;;
45136;SDS011;30894;51.740;19.498;2024-02-26T04:34:23;23.15;;;9.50;;
45136;SDS011;30894;51.740;19.498;2024-02-26T04:36:49;17.25;;;7.40;;
45136;SDS011;30894;51.740;19.498;2024-02-26T04:39:17;25.63;;;8.63;;
45136;SDS011;30894;51.740;19.498;2024-02-26T04:41:43;17.23;;;8.05;;
45136;SDS011;30894;51.740;19.498;2024-02-26T04:44:10;21.85;;;9.00;;
45136;SDS011;30894;51.740;19.498;2024-02-26T04:46:36;25.75;;;10.02;;
45136;SDS011;30894;51.740;19.498;2024-02-26T04:49:02;20.20;;;9.25;;
45136;SDS011;30894;51.740;19.498;2024-02-26T04:51:29;20.88;;;9.05;;
45136;SDS011;30894;51.740;19.498;2024-02-26T04:53:57;25.05;;;8.98;;
45136;SDS011;30894;51.740;19.498;2024-02-26T04:56:24;23.25;;;8.25;;
45136;SDS011;30894;51.740;19.498;2024-02-26T04:58:52;18.48;;;8.98;;
45136;SDS011;30894;51.740;19.498;2024-02-26T05:01:18;18.98;;;8.63;;
45136;SDS011;30894;51.740;19.498;2024-02-26T05:03:44;21.67;;;8.07;;
45136;SDS011;30894;51.740;19.498;2024-02-26T05:06:11;21.38;;;7.75;;
45136;SDS011;30894;51.740;19.498;2024-02-26T05:08:37;19.00;;;8.80;;
45136;SDS011;30894;51.740;19.498;2024-02-26T05:11:05;19.25;;;8.82;;
45136;SDS011;30894;51.740;19.498;2024-02-26T05:13:32;25.30;;;9.73;;
45136;SDS011;30894;51.740;19.498;2024-02-26T05:15:59;43.97;;;14.82;;
45136;SDS011;30894;51.740;19.498;2024-02-26T05:18:25;27.88;;;11.90;;
45136;SDS011;30894;51.740;19.498;2024-02-26T05:20:52;30.27;;;12.82;;
45136;SDS011;30894;51.740;19.498;2024-02-26T05:23:19;27.85;;;10.20;;
45136;SDS011;30894;51.740;19.498;2024-02-26T05:25:45;26.65;;;10.60;;
45136;SDS011;30894;51.740;19.498;2024-02-26T05:28:14;23.42;;;8.75;;
45136;SDS011;30894;51.740;19.498;2024-02-26T05:30:48;26.83;;;9.20;;
45136;SDS011;30894;51.740;19.498;2024-02-26T05:33:15;19.27;;;7.72;;
45136;SDS011;30894;51.740;19.498;2024-02-26T05:35:41;22.27;;;7.95;;
45136;SDS011;30894;51.740;19.498;2024-02-26T05:38:16;20.13;;;7.40;;
45136;SDS011;30894;51.740;19.498;2024-02-26T05:40:43;18.92;;;8.13;;
45136;SDS011;30894;51.740;19.498;2024-02-26T05:43:11;22.40;;;8.35;;
45136;SDS011;30894;51.740;19.498;2024-02-26T05:45:42;26.75;;;9.23;;
45136;SDS011;30894;51.740;19.498;2024-02-26T05:48:08;26.00;;;9.07;;
45136;SDS011;30894;51.740;19.498;2024-02-26T05:50:38;28.30;;;10.55;;
45136;SDS011;30894;51.740;19.498;2024-02-26T05:53:05;24.23;;;10.48;;
45136;SDS011;30894;51.740;19.498;2024-02-26T05:55:33;20.27;;;9.75;;
45136;SDS011;30894;51.740;19.498;2024-02-26T05:58:01;21.45;;;10.10;;
45136;SDS011;30894;51.740;19.498;2024-02-26T06:00:30;32.38;;;12.13;;
45136;SDS011;30894;51.740;19.498;2024-02-26T06:03:00;29.60;;;12.30;;
45136;SDS011;30894;51.740;19.498;2024-02-26T06:05:27;32.45;;;12.80;;
45136;SDS011;30894;51.740;19.498;2024-02-26T06:07:53;36.33;;;12.32;;
45136;SDS011;30894;51.740;19.498;2024-02-26T06:10:22;36.10;;;12.85;;
45136;SDS011;30894;51.740;19.498;2024-02-26T06:12:48;24.63;;;11.68;;
45136;SDS011;30894;51.740;19.498;2024-02-26T06:15:15;34.92;;;13.13;;
45136;SDS011;30894;51.740;19.498;2024-02-26T06:17:45;31.08;;;12.50;;
45136;SDS011;30894;51.740;19.498;2024-02-26T06:20:17;31.77;;;12.60;;
45136;SDS011;30894;51.740;19.498;2024-02-26T06:22:49;37.17;;;14.55;;
45136;SDS011;30894;51.740;19.498;2024-02-26T06:25:15;37.90;;;14.77;;
45136;SDS011;30894;51.740;19.498;2024-02-26T06:27:42;27.83;;;13.32;;
45136;SDS011;30894;51.740;19.498;2024-02-26T06:30:08;28.30;;;11.20;;
45136;SDS011;30894;51.740;19.498;2024-02-26T06:32:40;25.67;;;12.37;;
45136;SDS011;30894;51.740;19.498;2024-02-26T06:35:07;23.10;;;10.80;;
45136;SDS011;30894;51.740;19.498;2024-02-26T06:37:35;25.13;;;11.60;;
45136;SDS011;30894;51.740;19.498;2024-02-26T06:40:01;30.33;;;11.77;;
45136;SDS011;30894;51.740;19.498;2024-02-26T06:42:37;16.77;;;7.82;;
45136;SDS011;30894;51.740;19.498;2024-02-26T06:45:04;22.30;;;8.32;;
45136;SDS011;30894;51.740;19.498;2024-02-26T06:47:33;18.63;;;7.75;;
45136;SDS011;30894;51.740;19.498;2024-02-26T06:49:59;19.60;;;8.20;;
45136;SDS011;30894;51.740;19.498;2024-02-26T06:52:27;22.02;;;9.35;;
45136;SDS011;30894;51.740;19.498;2024-02-26T06:54:54;21.75;;;8.52;;
45136;SDS011;30894;51.740;19.498;2024-02-26T06:57:23;22.42;;;8.48;;
45136;SDS011;30894;51.740;19.498;2024-02-26T06:59:50;23.80;;;8.95;;
45136;SDS011;30894;51.740;19.498;2024-02-26T07:02:18;20.65;;;7.97;;
45136;SDS011;30894;51.740;19.498;2024-02-26T07:04:44;17.60;;;7.28;;
45136;SDS011;30894;51.740;19.498;2024-02-26T07:07:11;20.23;;;8.93;;
45136;SDS011;30894;51.740;19.498;2024-02-26T07:09:41;18.85;;;7.75;;
45136;SDS011;30894;51.740;19.498;2024-02-26T07:12:12;17.50;;;7.90;;
45136;SDS011;30894;51.740;19.498;2024-02-26T07:14:39;18.77;;;7.93;;
45136;SDS011;30894;51.740;19.498;2024-02-26T07:17:11;20.45;;;7.90;;
45136;SDS011;30894;51.740;19.498;2024-02-26T07:19:36;17.98;;;8.32;;
45136;SDS011;30894;51.740;19.498;2024-02-26T07:22:06;24.58;;;8.48;;
45136;SDS011;30894;51.740;19.498;2024-02-26T07:24:32;19.13;;;7.55;;
45136;SDS011;30894;51.740;19.498;2024-02-26T07:27:00;20.25;;;7.82;;
45136;SDS011;30894;51.740;19.498;2024-02-26T07:29:26;14.55;;;6.78;;
45136;SDS011;30894;51.740;19.498;2024-02-26T07:31:53;18.90;;;8.05;;
45136;SDS011;30894;51.740;19.498;2024-02-26T07:34:21;17.38;;;7.20;;
45136;SDS011;30894;51.740;19.498;2024-02-26T07:36:55;13.88;;;7.65;;
45136;SDS011;30894;51.740;19.498;2024-02-26T07:39:22;13.65;;;7.20;;
45136;SDS011;30894;51.740;19.498;2024-02-26T07:41:50;16.58;;;7.20;;
45136;SDS011;30894;51.740;19.498;2024-02-26T07:44:20;15.10;;;7.07;;
45136;SDS011;30894;51.740;19.498;2024-02-26T07:46:46;14.68;;;6.65;;
45136;SDS011;30894;51.740;19.498;2024-02-26T07:49:14;11.35;;;5.18;;
45136;SDS011;30894;51.740;19.498;2024-02-26T07:51:41;15.30;;;7.00;;
45136;SDS011;30894;51.740;19.498;2024-02-26T07:54:09;14.75;;;7.07;;
45136;SDS011;30894;51.740;19.498;2024-02-26T07:56:38;15.68;;;6.80;;
45136;SDS011;30894;51.740;19.498;2024-02-26T07:59:07;17.50;;;6.55;;
45136;SDS011;30894;51.740;19.498;2024-02-26T08:01:38;13.95;;;6.15;;
45136;SDS011;30894;51.740;19.498;2024-02-26T08:04:06;14.93;;;6.43;;
45136;SDS011;30894;51.740;19.498;2024-02-26T08:06:34;16.45;;;7.15;;
45136;SDS011;30894;51.740;19.498;2024-02-26T08:09:01;13.90;;;6.47;;
45136;SDS011;30894;51.740;19.498;2024-02-26T08:11:31;18.45;;;7.32;;
45136;SDS011;30894;51.740;19.498;2024-02-26T08:14:00;15.63;;;7.07;;
45136;SDS011;30894;51.740;19.498;2024-02-26T08:16:32;15.57;;;6.40;;
45136;SDS011;30894;51.740;19.498;2024-02-26T08:19:02;16.15;;;6.93;;
45136;SDS011;30894;51.740;19.498;2024-02-26T08:21:29;14.00;;;6.47;;
45136;SDS011;30894;51.740;19.498;2024-02-26T08:23:56;15.70;;;5.90;;
45136;SDS011;30894;51.740;19.498;2024-02-26T08:26:22;13.02;;;6.40;;
45136;SDS011;30894;51.740;19.498;2024-02-26T08:28:49;12.23;;;6.05;;
45136;SDS011;30894;51.740;19.498;2024-02-26T08:31:24;14.23;;;6.07;;
45136;SDS011;30894;51.740;19.498;2024-02-26T08:33:53;13.77;;;6.47;;
45136;SDS011;30894;51.740;19.498;2024-02-26T08:36:19;15.15;;;6.93;;
45136;SDS011;30894;51.740;19.498;2024-02-26T08:38:46;14.15;;;6.85;;
45136;SDS011;30894;51.740;19.498;2024-02-26T08:41:14;13.45;;;6.53;;
45136;SDS011;30894;51.740;19.498;2024-02-26T08:43:41;13.27;;;7.13;;
45136;SDS011;30894;51.740;19.498;2024-02-26T08:46:12;13.90;;;6.22;;
45136;SDS011;30894;51.740;19.498;2024-02-26T08:48:38;13.48;;;7.03;;
45136;SDS011;30894;51.740;19.498;2024-02-26T08:51:11;14.18;;;6.60;;
45136;SDS011;30894;51.740;19.498;2024-02-26T08:53:40;9.57;;;5.90;;
45136;SDS011;30894;51.740;19.498;2024-02-26T08:56:07;13.45;;;6.53;;
45136;SDS011;30894;51.740;19.498;2024-02-26T08:58:39;11.93;;;6.13;;
45136;SDS011;30894;51.740;19.498;2024-02-26T09:01:08;13.60;;;6.43;;
45136;SDS011;30894;51.740;19.498;2024-02-26T09:03:35;14.30;;;6.63;;
45136;SDS011;30894;51.740;19.498;2024-02-26T09:06:05;9.75;;;5.43;;
45136;SDS011;30894;51.740;19.498;2024-02-26T09:08:33;14.02;;;5.82;;
45136;SDS011;30894;51.740;19.498;2024-02-26T09:11:04;9.20;;;5.55;;
45136;SDS011;30894;51.740;19.498;2024-02-26T09:13:36;10.70;;;5.33;;
45136;SDS011;30894;51.740;19.498;2024-02-26T09:16:06;7.72;;;4.20;;
45136;SDS011;30894;51.740;19.498;2024-02-26T09:18:32;9.82;;;4.38;;
45136;SDS011;30894;51.740;19.498;2024-02-26T09:20:59;12.50;;;5.47;;
45136;SDS011;30894;51.740;19.498;2024-02-26T09:23:28;12.00;;;5.10;;
45136;SDS011;30894;51.740;19.498;2024-02-26T09:25:58;8.68;;;4.97;;
45136;SDS011;30894;51.740;19.498;2024-02-26T09:28:27;11.18;;;4.57;;
45136;SDS011;30894;51.740;19.498;2024-02-26T09:30:57;8.90;;;5.10;;
45136;SDS011;30894;51.740;19.498;2024-02-26T09:33:29;6.85;;;4.18;;
45136;SDS011;30894;51.740;19.498;2024-02-26T09:36:04;7.57;;;4.10;;
45136;SDS011;30894;51.740;19.498;2024-02-26T09:38:32;6.72;;;4.05;;
45136;SDS011;30894;51.740;19.498;2024-02-26T09:41:16;9.27;;;3.72;;
45136;SDS011;30894;51.740;19.498;2024-02-26T09:43:48;7.65;;;3.58;;
45136;SDS011;30894;51.740;19.498;2024-02-26T09:46:36;9.40;;;4.18;;
45136;SDS011;30894;51.740;19.498;2024-02-26T09:49:04;6.30;;;3.70;;
45136;SDS011;30894;51.740;19.498;2024-02-26T09:51:32;6.18;;;3.40;;
45136;SDS011;30894;51.740;19.498;2024-02-26T09:54:01;6.30;;;3.42;;
45136;SDS011;30894;51.740;19.498;2024-02-26T09:56:28;7.28;;;3.65;;
45136;SDS011;30894;51.740;19.498;2024-02-26T09:58:57;6.15;;;3.83;;
45136;SDS011;30894;51.740;19.498;2024-02-26T10:01:28;6.78;;;2.97;;
45136;SDS011;30894;51.740;19.498;2024-02-26T10:04:06;5.03;;;3.28;;
45136;SDS011;30894;51.740;19.498;2024-02-26T10:06:41;8.02;;;3.50;;
45136;SDS011;30894;51.740;19.498;2024-02-26T10:09:10;7.05;;;3.83;;
45136;SDS011;30894;51.740;19.498;2024-02-26T10:11:37;7.10;;;3.35;;
45136;SDS011;30894;51.740;19.498;2024-02-26T10:14:16;7.38;;;3.78;;
45136;SDS011;30894;51.740;19.498;2024-02-26T10:16:43;5.57;;;3.20;;
45136;SDS011;30894;51.740;19.498;2024-02-26T10:19:09;4.43;;;2.85;;
45136;SDS011;30894;51.740;19.498;2024-02-26T10:22:00;5.45;;;3.35;;
45136;SDS011;30894;51.740;19.498;2024-02-26T10:24:28;5.25;;;2.92;;
45136;SDS011;30894;51.740;19.498;2024-02-26T10:27:00;5.50;;;2.90;;
45136;SDS011;30894;51.740;19.498;2024-02-26T10:29:31;4.63;;;3.05;;
45136;SDS011;30894;51.740;19.498;2024-02-26T10:32:03;4.85;;;2.67;;
45136;SDS011;30894;51.740;19.498;2024-02-26T10:34:55;4.78;;;2.33;;
45136;SDS011;30894;51.740;19.498;2024-02-26T10:37:22;3.72;;;2.08;;
45136;SDS011;30894;51.740;19.498;2024-02-26T10:39:50;3.75;;;2.08;;
45136;SDS011;30894;51.740;19.498;2024-02-26T10:42:17;4.45;;;2.97;;
45136;SDS011;30894;51.740;19.498;2024-02-26T10:44:45;4.25;;;2.42;;
45136;SDS011;30894;51.740;19.498;2024-02-26T10:47:15;5.50;;;2.67;;
45136;SDS011;30894;51.740;19.498;2024-02-26T10:49:45;4.85;;;2.67;;
45136;SDS011;30894;51.740;19.498;2024-02-26T10:52:16;5.20;;;3.05;;
45136;SDS011;30894;51.740;19.498;2024-02-26T10:54:46;5.25;;;3.40;;
45136;SDS011;30894;51.740;19.498;2024-02-26T10:57:17;6.22;;;3.65;;
45136;SDS011;30894;51.740;19.498;2024-02-26T10:59:47;5.43;;;2.95;;
45136;SDS011;30894;51.740;19.498;2024-02-26T11:02:15;6.93;;;3.35;;
45136;SDS011;30894;51.740;19.498;2024-02-26T11:04:41;6.35;;;3.10;;
45136;SDS011;30894;51.740;19.498;2024-02-26T11:07:10;4.82;;;3.20;;
45136;SDS011;30894;51.740;19.498;2024-02-26T11:09:39;4.60;;;2.58;;
45136;SDS011;30894;51.740;19.498;2024-02-26T11:12:10;6.18;;;3.65;;
45136;SDS011;30894;51.740;19.498;2024-02-26T11:14:39;5.28;;;3.17;;
45136;SDS011;30894;51.740;19.498;2024-02-26T11:17:10;6.45;;;3.72;;
45136;SDS011;30894;51.740;19.498;2024-02-26T11:19:39;5.63;;;2.88;;
45136;SDS011;30894;51.740;19.498;2024-02-26T11:22:10;7.43;;;4.15;;
45136;SDS011;30894;51.740;19.498;2024-02-26T11:24:36;7.68;;;4.28;;
45136;SDS011;30894;51.740;19.498;2024-02-26T11:27:07;8.32;;;4.57;;
45136;SDS011;30894;51.740;19.498;2024-02-26T11:29:49;8.60;;;4.57;;
45136;SDS011;30894;51.740;19.498;2024-02-26T11:32:19;6.82;;;4.22;;
45136;SDS011;30894;51.740;19.498;2024-02-26T11:34:45;7.28;;;3.85;;
45136;SDS011;30894;51.740;19.498;2024-02-26T11:37:13;8.63;;;4.78;;
45136;SDS011;30894;51.740;19.498;2024-02-26T11:39:41;5.30;;;3.33;;
45136;SDS011;30894;51.740;19.498;2024-02-26T11:42:08;4.97;;;2.70;;
45136;SDS011;30894;51.740;19.498;2024-02-26T11:44:35;7.90;;;2.75;;
45136;SDS011;30894;51.740;19.498;2024-02-26T11:47:12;4.75;;;2.35;;
45136;SDS011;30894;51.740;19.498;2024-02-26T11:49:48;2.70;;;2.00;;
45136;SDS011;30894;51.740;19.498;2024-02-26T11:52:15;3.75;;;2.30;;
45136;SDS011;30894;51.740;19.498;2024-02-26T11:54:44;5.93;;;3.05;;
45136;SDS011;30894;51.740;19.498;2024-02-26T12:00:13;3.58;;;2.40;;
45136;SDS011;30894;51.740;19.498;2024-02-26T12:05:25;3.88;;;2.70;;
45136;SDS011;30894;51.740;19.498;2024-02-26T12:07:55;4.50;;;2.83;;
45136;SDS011;30894;51.740;19.498;2024-02-26T12:10:38;6.00;;;3.00;;
45136;SDS011;30894;51.740;19.498;2024-02-26T12:15:42;3.70;;;2.60;;
45136;SDS011;30894;51.740;19.498;2024-02-26T12:18:22;4.70;;;2.92;;
45136;SDS011;30894;51.740;19.498;2024-02-26T12:20:59;5.10;;;2.50;;
45136;SDS011;30894;51.740;19.498;2024-02-26T12:23:30;5.75;;;3.50;;
45136;SDS011;30894;51.740;19.498;2024-02-26T12:25:59;6.18;;;3.30;;
45136;SDS011;30894;51.740;19.498;2024-02-26T12:28:28;5.38;;;3.05;;
45136;SDS011;30894;51.740;19.498;2024-02-26T12:30:58;6.85;;;2.58;;
45136;SDS011;30894;51.740;19.498;2024-02-26T12:33:26;6.13;;;3.13;;
45136;SDS011;30894;51.740;19.498;2024-02-26T12:35:53;7.00;;;3.45;;
45136;SDS011;30894;51.740;19.498;2024-02-26T12:38:22;6.97;;;3.20;;
45136;SDS011;30894;51.740;19.498;2024-02-26T12:40:48;5.13;;;2.58;;
45136;SDS011;30894;51.740;19.498;2024-02-26T12:43:15;4.18;;;2.67;;
45136;SDS011;30894;51.740;19.498;2024-02-26T12:45:42;4.10;;;2.50;;
45136;SDS011;30894;51.740;19.498;2024-02-26T12:48:13;5.53;;;2.45;;
45136;SDS011;30894;51.740;19.498;2024-02-26T12:50:39;3.85;;;2.60;;
45136;SDS011;30894;51.740;19.498;2024-02-26T12:53:06;4.53;;;2.47;;
45136;SDS011;30894;51.740;19.498;2024-02-26T12:55:33;3.25;;;2.40;;
45136;SDS011;30894;51.740;19.498;2024-02-26T12:58:06;4.23;;;2.43;;
45136;SDS011;30894;51.740;19.498;2024-02-26T13:00:35;4.90;;;2.90;;
45136;SDS011;30894;51.740;19.498;2024-02-26T13:03:02;4.15;;;2.35;;
45136;SDS011;30894;51.740;19.498;2024-02-26T13:05:30;6.07;;;2.33;;
45136;SDS011;30894;51.740;19.498;2024-02-26T13:08:00;4.95;;;2.70;;
45136;SDS011;30894;51.740;19.498;2024-02-26T13:10:27;3.92;;;2.90;;
45136;SDS011;30894;51.740;19.498;2024-02-26T13:12:56;4.00;;;2.47;;
45136;SDS011;30894;51.740;19.498;2024-02-26T13:15:22;5.50;;;2.92;;
45136;SDS011;30894;51.740;19.498;2024-02-26T13:17:49;4.05;;;2.72;;
45136;SDS011;30894;51.740;19.498;2024-02-26T13:20:28;4.45;;;3.00;;
45136;SDS011;30894;51.740;19.498;2024-02-26T13:23:00;4.88;;;2.72;;
45136;SDS011;30894;51.740;19.498;2024-02-26T13:25:33;4.60;;;2.78;;
45136;SDS011;30894;51.740;19.498;2024-02-26T13:30:52;4.28;;;3.00;;
45136;SDS011;30894;51.740;19.498;2024-02-26T13:33:27;7.15;;;3.88;;
45136;SDS011;30894;51.740;19.498;2024-02-26T13:36:00;7.30;;;3.72;;
45136;SDS011;30894;51.740;19.498;2024-02-26T13:38:28;8.18;;;4.10;;
45136;SDS011;30894;51.740;19.498;2024-02-26T13:40:54;6.90;;;3.63;;
45136;SDS011;30894;51.740;19.498;2024-02-26T13:43:21;8.50;;;4.40;;
45136;SDS011;30894;51.740;19.498;2024-02-26T13:45:50;7.07;;;3.67;;
45136;SDS011;30894;51.740;19.498;2024-02-26T13:48:17;8.02;;;4.03;;
45136;SDS011;30894;51.740;19.498;2024-02-26T13:50:45;9.15;;;4.38;;
45136;SDS011;30894;51.740;19.498;2024-02-26T13:53:15;6.47;;;3.65;;
45136;SDS011;30894;51.740;19.498;2024-02-26T13:55:41;5.38;;;3.72;;
45136;SDS011;30894;51.740;19.498;2024-02-26T13:58:13;7.15;;;4.25;;
45136;SDS011;30894;51.740;19.498;2024-02-26T14:00:42;9.45;;;5.18;;
45136;SDS011;30894;51.740;19.498;2024-02-26T14:03:10;11.30;;;5.13;;
45136;SDS011;30894;51.740;19.498;2024-02-26T14:05:36;7.47;;;4.00;;
45136;SDS011;30894;51.740;19.498;2024-02-26T14:08:03;10.18;;;4.70;;
45136;SDS011;30894;51.740;19.498;2024-02-26T14:10:30;9.13;;;4.80;;
45136;SDS011;30894;51.740;19.498;2024-02-26T14:12:58;9.75;;;5.50;;
45136;SDS011;30894;51.740;19.498;2024-02-26T14:15:25;10.38;;;5.68;;
45136;SDS011;30894;51.740;19.498;2024-02-26T14:17:52;7.90;;;4.80;;
45136;SDS011;30894;51.740;19.498;2024-02-26T14:20:25;13.57;;;5.20;;
45136;SDS011;30894;51.740;19.498;2024-02-26T14:22:54;8.15;;;5.22;;
45136;SDS011;30894;51.740;19.498;2024-02-26T14:25:24;10.30;;;4.95;;
45136;SDS011;30894;51.740;19.498;2024-02-26T14:27:51;8.45;;;4.70;;
45136;SDS011;30894;51.740;19.498;2024-02-26T14:30:20;12.10;;;4.68;;
45136;SDS011;30894;51.740;19.498;2024-02-26T14:32:48;9.65;;;4.55;;
45136;SDS011;30894;51.740;19.498;2024-02-26T14:35:14;9.30;;;5.25;;
45136;SDS011;30894;51.740;19.498;2024-02-26T14:37:42;9.63;;;4.85;;
45136;SDS011;30894;51.740;19.498;2024-02-26T14:40:11;8.13;;;4.60;;
45136;SDS011;30894;51.740;19.498;2024-02-26T14:42:39;11.13;;;5.40;;
45136;SDS011;30894;51.740;19.498;2024-02-26T14:45:06;15.70;;;6.57;;